Mary Bennett — WDC4592 — position and weather

sailwx.info

Track history (hours):
 
Tides and Currents Weather Stations Pressure Air Temp Water Temp Dewpoint Dewpoint Depression Visibility Wind Speed Wind Dir Waves Ship Positions

Mary Bennett

Owner: Savannah Marine Services, Savannah, GA. More information available from US FCC via Universal Licensing System and Coast Guard Vessel Documentation Center.

Last reported at 2015-Apr-19 20:26 UTC. Time now 2015-Apr-19 22:56 UTC.
Position N 34°42' W 076°59'.

Length 21 m; draft 2.3 m.

Type: Tug. MMSI: 367027140.

Date/timePositionNaut miles runAvg speedWind from/ knotsBaromVisibWave heightAir tempDewpointWater temp
2015-Apr-19 20:26N 34°42' W 076°59'5 6.1
2015-Apr-19 19:34N 34°43' W 076°53'5 5.3
2015-Apr-19 18:34N 34°43' W 076°46'4 4.0
2015-Apr-19 17:34N 34°44' W 076°42'7 6.5
2015-Apr-19 16:34N 34°50' W 076°41'6 5.7
2015-Apr-19 15:30N 34°56' W 076°39'  
2015-Apr-16 20:17N 34°59' W 076°41'3 4.4
2015-Apr-16 19:33N 34°56' W 076°39'4 3.6
2015-Apr-16 18:33N 34°53' W 076°41'4 3.6
2015-Apr-16 17:33N 34°49' W 076°41'3 3.2
2015-Apr-16 16:33N 34°46' W 076°41'3 2.9
2015-Apr-16 15:33N 34°43' W 076°42'4 3.9
2015-Apr-16 14:33N 34°43' W 076°46'4 3.7
2015-Apr-16 13:33N 34°43' W 076°51'  
2015-Apr-11 05:33N 34°28' W 077°25'0 0.0
2015-Apr-11 04:33N 34°28' W 077°25'0 0.0
2015-Apr-11 03:23N 34°28' W 077°25'0 0.0
2015-Apr-11 02:33N 34°28' W 077°25'26 4.2
2015-Apr-10 20:18N 34°36' W 076°55'5 7.4
2015-Apr-10 19:33N 34°38' W 076°49'7 7.4
2015-Apr-10 18:33N 34°40' W 076°40'5 4.9
2015-Apr-10 17:33N 34°45' W 076°41'6 5.5
2015-Apr-10 16:33N 34°50' W 076°41'8 6.1
2015-Apr-10 15:11N 34°59' W 076°41'  
Track history (hours):
 
Tides and Currents Weather Stations Pressure Air Temp Water Temp Dewpoint Dewpoint Depression Visibility Wind Speed Wind Dir Waves Ship Positions

Mary Bennett

Owner: Savannah Marine Services, Savannah, GA. More information available from US FCC via Universal Licensing System and Coast Guard Vessel Documentation Center.

Last reported at 2015-Apr-19 20:26 UTC. Time now 2015-Apr-19 22:56 UTC.
Position N 34°42' W 076°59'.

Length 21 m; draft 2.3 m.

Type: Tug. MMSI: 367027140.

Date/timePositionNaut miles runAvg speedWind from/ knotsBaromVisibWave heightAir tempDewpointWater temp
2015-Apr-19 20:26N 34°42' W 076°59'5 6.1
2015-Apr-19 19:34N 34°43' W 076°53'5 5.3
2015-Apr-19 18:34N 34°43' W 076°46'4 4.0
2015-Apr-19 17:34N 34°44' W 076°42'7 6.5
2015-Apr-19 16:34N 34°50' W 076°41'6 5.7
2015-Apr-19 15:30N 34°56' W 076°39'  
2015-Apr-16 20:17N 34°59' W 076°41'3 4.4
2015-Apr-16 19:33N 34°56' W 076°39'4 3.6
2015-Apr-16 18:33N 34°53' W 076°41'4 3.6
2015-Apr-16 17:33N 34°49' W 076°41'3 3.2
2015-Apr-16 16:33N 34°46' W 076°41'3 2.9
2015-Apr-16 15:33N 34°43' W 076°42'4 3.9
2015-Apr-16 14:33N 34°43' W 076°46'4 3.7
2015-Apr-16 13:33N 34°43' W 076°51'  
2015-Apr-11 05:33N 34°28' W 077°25'0 0.0
2015-Apr-11 04:33N 34°28' W 077°25'0 0.0
2015-Apr-11 03:23N 34°28' W 077°25'0 0.0
2015-Apr-11 02:33N 34°28' W 077°25'26 4.2
2015-Apr-10 20:18N 34°36' W 076°55'5 7.4
2015-Apr-10 19:33N 34°38' W 076°49'7 7.4
2015-Apr-10 18:33N 34°40' W 076°40'5 4.9
2015-Apr-10 17:33N 34°45' W 076°41'6 5.5
2015-Apr-10 16:33N 34°50' W 076°41'8 6.1
2015-Apr-10 15:11N 34°59' W 076°41'  

Dump ship's entire track history